Terminal Aerodrome Forecast
Issued by NWS

Home | Current Version | Previous Version | Text Only | Print | Product List | Glossary On
Versions: 1 2 3 4 5 6 7 8 9 10 11 12 13 14 15 16 17 18 19 20 21 22 23 24 25 26 27
000
FTUS42 KMFL 200533
TAFOPF
TAF
KOPF 200533Z 2006/2106 13010KT P6SM FEW020 SCT250
     FM201400 12010KT P6SM VCTS SCT030CB BKN060 PROB30 2015/2019
      VRB20G30KT 3SM TSRA SCT015 BKN025CB OVC060
     FM202300 11010KT P6SM VCSH SCT025 SCT060=

USA.gov is the U.S. government's official web portal to all federal, state and local government web resources and services.